Charleston, Oregon
Current Conditions -  °F | °C
As of 7:15 PM on Friday 21 Nov 2014 (Local Time) from KOTH Reporting Station
Overcast Overcast  
Wind Chill: 57°   Ceiling: 2400
Heat Index: 57°   Visibility: 2mi
Dew Point: 57°   Wind: 17mph
Humidity: 100%   Direction: 200°SSW
Pressure: 29.67"   Gusts: 28mph
Location:  43.3057°N, 124.056°W
Report Text: KOTH 220315Z 20015G24KT 2SM SCT010 OVC024 14/14 A2967 RMK AO1 +RA P0006
Loading
Personal Weather Stations






























Interactive Weather Map New forecast layout! Learn more

10-Day Weather Forecast

Advertisements
Track Severe Weather on mobile